Chickamauga Observed Data For Previous 48 Hours

Caption
Day and Hour Reservoir Elevation (behind dam)* Tailwater Elevation (below dam)* Average Hourly Discharge*
11/16/2017 2 AM EST 678.83 636.00 27,685
11/16/2017 3 AM EST 678.82 635.64 27,138
11/16/2017 4 AM EST 678.70 635.35 27,083
11/16/2017 5 AM EST 678.48 635.92 28,337
11/16/2017 6 AM EST 678.47 637.49 47,826
11/16/2017 7 AM EST 678.34 637.63 47,821
11/16/2017 8 AM EST 678.35 637.74 47,583
11/16/2017 9 AM EST 678.37 637.80 47,778
11/16/2017 10 AM EST 678.40 637.81 47,658
11/16/2017 11 AM EST 678.41 637.87 47,632
11/16/2017 12 PM EST 678.42 637.93 47,607
11/16/2017 1 PM EST 678.37 637.89 47,717
11/16/2017 2 PM EST 678.33 637.91 47,597
11/16/2017 3 PM EST 678.50 635.73 27,796
11/16/2017 4 PM EST 678.50 635.62 24,885
11/16/2017 5 PM EST 678.61 635.17 27,304
11/16/2017 6 PM EST 678.37 637.48 47,642
11/16/2017 7 PM EST 678.27 637.69 47,966
11/16/2017 8 PM EST 678.24 637.80 47,805
11/16/2017 9 PM EST 678.19 637.92 47,833
11/16/2017 10 PM EST 678.26 638.01 47,720
11/16/2017 11 PM EST 678.33 638.09 47,752
11/17/2017 12 AM EST 678.34 638.14 47,639
11/17/2017 1 AM EST 678.34 638.17 47,807
11/17/2017 2 AM EST 678.46 636.11 27,915
11/17/2017 3 AM EST 678.47 635.77 27,335
11/17/2017 4 AM EST 678.39 635.58 27,071
11/17/2017 5 AM EST 678.36 635.44 27,137
11/17/2017 6 AM EST 678.37 635.32 27,014
11/17/2017 7 AM EST 678.13 636.06 28,430
11/17/2017 8 AM EST 678.15 637.63 47,872
11/17/2017 9 AM EST 678.08 637.89 47,821
11/17/2017 10 AM EST 678.23 638.02 47,667
11/17/2017 11 AM EST 678.29 638.12 47,776
11/17/2017 12 PM EST 678.18 638.16 47,709
11/17/2017 1 PM EST 678.09 638.18 47,793
11/17/2017 2 PM EST 678.04 638.23 47,644
11/17/2017 3 PM EST 677.95 638.24 47,741
11/17/2017 4 PM EST 677.92 638.23 47,601
11/17/2017 5 PM EST 677.87 638.23 47,737
11/17/2017 6 PM EST 677.83 638.18 47,627
11/17/2017 7 PM EST 677.79 638.20 47,663
11/17/2017 8 PM EST 677.95 636.17 27,889
11/17/2017 9 PM EST 677.97 635.86 27,387
11/17/2017 10 PM EST 677.91 635.65 27,251
11/17/2017 11 PM EST 677.89 635.55 27,346
11/18/2017 12 AM EST 677.91 635.47 27,187
11/18/2017 1 AM EST 677.84 635.43 27,360
11/18/2017 2 AM EST 677.77 635.28 27,102
11/18/2017 3 AM EST 677.81 635.21 27,109
11/18/2017 4 AM EST 677.81 635.10 27,092
11/18/2017 5 AM EST 677.87 635.08 27,218
11/18/2017 6 AM EST 677.91 634.99 27,080
11/18/2017 7 AM EST 677.70 635.72 28,412
11/18/2017 8 AM EST 677.66 637.42 48,145
11/18/2017 9 AM EST 677.58 637.63 47,873
11/18/2017 10 AM EST 677.54 637.74 47,869

Elevations are in feet above sea level. Discharges are in cubic feet per second and are reported at the end of the hour.